createdAt,value
2018-05-31T00:01:41.778Z,22.50
2018-05-31T00:04:43.806Z,22.80
2018-05-31T00:07:46.991Z,22.70
2018-05-31T00:10:48.580Z,22.60
2018-05-31T00:13:49.856Z,22.40
2018-05-31T00:16:51.118Z,22.60
2018-05-31T00:19:52.357Z,22.50
2018-05-31T00:22:53.644Z,22.40
2018-05-31T00:25:54.939Z,22.40
2018-05-31T00:28:56.191Z,22.50
2018-05-31T00:31:57.467Z,22.60
2018-05-31T00:34:58.737Z,22.60
2018-05-31T00:38:00.726Z,22.30
2018-05-31T00:41:02.778Z,22.30
2018-05-31T00:44:04.040Z,22.30
2018-05-31T00:47:05.312Z,22.10
2018-05-31T00:50:06.573Z,22.20
2018-05-31T00:53:07.819Z,22.30
2018-05-31T00:56:16.720Z,22.40
2018-05-31T00:59:17.986Z,22.20
2018-05-31T01:02:19.214Z,22.30
2018-05-31T01:05:20.558Z,22.30
2018-05-31T01:08:21.813Z,22.30
2018-05-31T01:11:23.973Z,22.30
2018-05-31T01:14:25.215Z,22.10
2018-05-31T01:17:26.494Z,21.90
2018-05-31T01:20:27.796Z,22.00
2018-05-31T01:23:29.043Z,21.90
2018-05-31T01:26:31.805Z,22.00
2018-05-31T01:29:33.078Z,22.00
2018-05-31T01:32:34.348Z,22.00
2018-05-31T01:35:37.003Z,22.10
2018-05-31T01:38:45.182Z,22.00
2018-05-31T01:41:46.471Z,22.10
2018-05-31T01:44:47.732Z,22.10
2018-05-31T01:47:48.986Z,22.10
2018-05-31T01:50:50.258Z,22.10
2018-05-31T01:53:51.510Z,21.90
2018-05-31T01:56:52.765Z,21.80
2018-05-31T01:59:54.037Z,21.90
2018-05-31T02:02:55.282Z,21.80
2018-05-31T02:05:56.541Z,21.70
2018-05-31T02:08:57.785Z,21.90
2018-05-31T02:11:59.120Z,21.90
2018-05-31T02:15:00.383Z,21.90
2018-05-31T02:18:01.629Z,21.70
2018-05-31T02:21:02.889Z,21.70
2018-05-31T02:24:04.166Z,21.60
2018-05-31T02:27:05.394Z,21.70
2018-05-31T02:30:06.691Z,21.70
2018-05-31T02:33:07.975Z,21.80
2018-05-31T02:36:09.997Z,21.80
2018-05-31T02:39:11.246Z,21.80
2018-05-31T02:42:12.521Z,21.80
2018-05-31T02:45:13.766Z,21.80
2018-05-31T02:48:15.028Z,21.80
2018-05-31T02:51:16.289Z,21.70
2018-05-31T02:54:18.298Z,21.70
2018-05-31T02:57:19.538Z,21.70
2018-05-31T03:00:20.814Z,21.70
2018-05-31T03:03:22.078Z,21.60
2018-05-31T03:06:23.372Z,21.70
2018-05-31T03:09:24.622Z,21.70
2018-05-31T03:12:25.863Z,21.70
2018-05-31T03:15:27.205Z,21.60
2018-05-31T03:18:28.429Z,21.40
2018-05-31T03:21:29.708Z,21.40
2018-05-31T03:24:31.006Z,21.40
2018-05-31T03:27:32.267Z,21.40
2018-05-31T03:30:33.532Z,21.50
2018-05-31T03:33:35.557Z,21.50
2018-05-31T03:36:36.813Z,21.40
2018-05-31T03:39:38.042Z,21.30
2018-05-31T03:42:39.337Z,21.30
2018-05-31T03:45:40.584Z,21.40
2018-05-31T03:48:41.853Z,21.30
2018-05-31T03:51:43.152Z,21.00
2018-05-31T03:54:44.454Z,21.10
2018-05-31T03:57:45.779Z,21.20
2018-05-31T04:00:47.046Z,21.30
2018-05-31T04:03:48.421Z,21.30
2018-05-31T04:06:49.666Z,21.30
2018-05-31T04:09:50.925Z,21.20
2018-05-31T04:12:52.201Z,21.20
2018-05-31T04:15:53.474Z,21.30
2018-05-31T04:18:54.740Z,21.40
2018-05-31T04:21:56.086Z,21.40
2018-05-31T04:24:57.347Z,21.40
2018-05-31T04:27:58.610Z,21.50
2018-05-31T04:30:59.921Z,21.50
2018-05-31T04:34:01.180Z,21.40
2018-05-31T04:37:03.219Z,21.40
2018-05-31T04:40:04.533Z,21.40
2018-05-31T04:43:05.822Z,21.30
2018-05-31T04:46:07.071Z,21.20
2018-05-31T04:49:08.319Z,21.30
2018-05-31T04:52:10.287Z,21.30
2018-05-31T04:55:12.294Z,21.40
2018-05-31T04:58:13.555Z,21.40
2018-05-31T05:01:14.824Z,21.40
2018-05-31T05:04:16.082Z,21.40
2018-05-31T05:07:17.378Z,21.50
2018-05-31T05:10:18.611Z,21.40
2018-05-31T05:13:19.928Z,21.30
2018-05-31T05:16:21.200Z,21.30
2018-05-31T05:19:22.470Z,21.30
2018-05-31T05:22:23.704Z,21.30
2018-05-31T05:25:24.973Z,21.30
2018-05-31T05:28:26.259Z,21.30
2018-05-31T05:31:28.279Z,21.20
2018-05-31T05:34:29.570Z,21.20
2018-05-31T05:37:30.819Z,21.50
2018-05-31T05:40:32.069Z,21.60
2018-05-31T05:43:33.363Z,21.70
2018-05-31T05:46:35.911Z,21.90
2018-05-31T05:49:37.146Z,22.00
2018-05-31T05:52:38.381Z,22.00
2018-05-31T05:55:42.924Z,22.10
2018-05-31T05:58:44.188Z,22.10
2018-05-31T06:01:45.649Z,21.90
2018-05-31T06:04:46.901Z,22.00
2018-05-31T06:07:48.171Z,22.00
2018-05-31T06:10:49.433Z,22.00
2018-05-31T06:13:50.698Z,22.10
2018-05-31T06:16:52.699Z,22.00
2018-05-31T06:19:54.102Z,22.00
2018-05-31T06:22:55.369Z,22.00
2018-05-31T06:25:57.362Z,22.30
2018-05-31T06:28:58.680Z,22.20
2018-05-31T06:31:59.991Z,22.50
2018-05-31T06:35:01.316Z,22.40
2018-05-31T06:38:02.899Z,22.40
2018-05-31T06:41:04.116Z,22.40
2018-05-31T06:44:05.379Z,22.40
2018-05-31T06:47:06.633Z,22.50
2018-05-31T06:50:07.902Z,22.50
2018-05-31T06:53:09.191Z,22.60
2018-05-31T06:56:10.430Z,22.70
2018-05-31T06:59:11.745Z,22.50
2018-05-31T07:02:15.056Z,22.60
2018-05-31T07:05:17.959Z,22.60
2018-05-31T07:08:21.893Z,22.60
2018-05-31T07:11:24.041Z,22.80
2018-05-31T07:14:25.284Z,22.80
2018-05-31T07:17:26.506Z,22.90
2018-05-31T07:20:28.488Z,23.00
2018-05-31T07:23:30.512Z,23.20
2018-05-31T07:26:31.980Z,23.20
2018-05-31T07:29:33.922Z,23.20
2018-05-31T07:32:35.888Z,23.00
2018-05-31T07:35:37.885Z,23.10
2018-05-31T07:38:39.922Z,23.00
2018-05-31T07:41:41.157Z,23.00
2018-05-31T07:44:42.405Z,23.10
2018-05-31T07:47:43.688Z,23.20
2018-05-31T07:50:45.107Z,23.50
2018-05-31T07:53:47.141Z,23.70
2018-05-31T07:56:48.557Z,23.70
2018-05-31T07:59:50.724Z,23.60
2018-05-31T08:02:52.059Z,23.60
2018-05-31T08:05:53.405Z,23.40
2018-05-31T08:08:54.670Z,23.40
2018-05-31T08:11:55.994Z,23.50
2018-05-31T08:14:58.028Z,23.50
2018-05-31T08:17:59.291Z,23.50
2018-05-31T08:21:00.545Z,23.70
2018-05-31T08:24:01.849Z,23.70
2018-05-31T08:27:03.413Z,23.70
2018-05-31T08:30:04.819Z,23.80
2018-05-31T08:33:06.824Z,23.70
2018-05-31T08:36:08.113Z,23.70
2018-05-31T08:39:09.381Z,23.70
2018-05-31T08:42:10.626Z,23.80
2018-05-31T08:45:11.871Z,23.80
2018-05-31T08:48:13.157Z,23.90
2018-05-31T08:51:14.559Z,23.90
2018-05-31T08:54:15.790Z,23.90
2018-05-31T08:57:17.097Z,23.90
2018-05-31T09:00:18.347Z,23.90
2018-05-31T09:03:19.579Z,23.80
2018-05-31T09:06:20.978Z,23.80
2018-05-31T09:09:22.303Z,23.90
2018-05-31T09:12:23.628Z,23.90
2018-05-31T09:15:25.671Z,23.90
2018-05-31T09:18:26.948Z,23.90
2018-05-31T09:21:28.343Z,23.90
2018-05-31T09:24:30.339Z,24.00
2018-05-31T09:27:31.657Z,23.90
2018-05-31T09:30:32.900Z,24.00
2018-05-31T09:33:34.168Z,24.10
2018-05-31T09:36:35.409Z,24.10
2018-05-31T09:39:36.650Z,24.10
2018-05-31T09:42:37.938Z,24.30
2018-05-31T09:45:39.223Z,24.40
2018-05-31T09:48:40.456Z,24.60
2018-05-31T09:51:41.731Z,24.90
2018-05-31T09:54:43.013Z,25.00
2018-05-31T09:57:44.250Z,25.20
2018-05-31T10:00:45.474Z,25.30
2018-05-31T10:03:47.435Z,25.10
2018-05-31T10:06:48.705Z,25.10
2018-05-31T10:09:49.941Z,25.30
2018-05-31T10:12:51.188Z,25.40
2018-05-31T10:15:52.407Z,25.60
2018-05-31T10:18:54.386Z,26.10
2018-05-31T10:21:56.398Z,26.20
2018-05-31T10:24:57.663Z,26.20
2018-05-31T10:27:58.933Z,26.30
2018-05-31T10:31:00.250Z,26.40
2018-05-31T10:34:02.253Z,26.60
2018-05-31T10:37:03.527Z,26.50
2018-05-31T10:40:04.822Z,26.70
2018-05-31T10:43:06.089Z,26.70
2018-05-31T10:46:07.331Z,26.80
2018-05-31T10:49:08.612Z,26.80
2018-05-31T10:52:09.981Z,26.90
2018-05-31T10:55:11.242Z,26.90
2018-05-31T10:58:12.489Z,27.00
2018-05-31T11:01:13.736Z,27.00
2018-05-31T11:04:14.970Z,27.00
2018-05-31T11:07:16.955Z,27.10
2018-05-31T11:10:18.918Z,27.20
2018-05-31T11:13:20.160Z,27.10
2018-05-31T11:16:21.446Z,27.20
2018-05-31T11:19:23.572Z,27.40
2018-05-31T11:22:24.846Z,27.40
2018-05-31T11:25:26.174Z,27.50
2018-05-31T11:28:28.168Z,27.50
2018-05-31T11:31:29.440Z,27.50
2018-05-31T11:34:30.684Z,27.60
2018-05-31T11:37:32.697Z,27.90
2018-05-31T11:40:33.943Z,27.80
2018-05-31T11:43:35.189Z,27.90
2018-05-31T11:46:37.185Z,27.60
2018-05-31T11:49:38.427Z,27.50
2018-05-31T11:52:40.417Z,27.00
2018-05-31T11:55:41.654Z,27.00
2018-05-31T11:58:42.896Z,26.90
2018-05-31T12:01:46.184Z,26.70
2018-05-31T12:04:47.385Z,26.60
2018-05-31T12:07:48.652Z,26.40
2018-05-31T12:10:50.075Z,26.20
2018-05-31T12:13:51.350Z,26.00
2018-05-31T12:20:02.698Z,26.00
2018-05-31T12:23:08.202Z,25.90
2018-05-31T12:26:10.114Z,25.80
2018-05-31T12:29:11.840Z,25.70
2018-05-31T12:32:13.743Z,25.70
2018-05-31T12:35:15.631Z,25.60
2018-05-31T12:38:18.211Z,25.60
2018-05-31T12:41:20.025Z,25.60
2018-05-31T12:44:21.923Z,25.60
2018-05-31T12:47:24.471Z,25.40
2018-05-31T12:50:27.317Z,25.40
2018-05-31T12:53:29.983Z,25.40
2018-05-31T12:56:31.880Z,25.40
2018-05-31T12:59:34.423Z,25.30
2018-05-31T13:02:39.565Z,25.30
2018-05-31T13:05:41.540Z,25.30
2018-05-31T13:08:43.662Z,25.20
2018-05-31T13:11:46.321Z,25.20
2018-05-31T13:14:48.365Z,25.20
2018-05-31T13:17:50.100Z,25.20
2018-05-31T13:20:52.507Z,25.20
2018-05-31T13:23:55.237Z,25.20
2018-05-31T13:26:57.016Z,25.10
2018-05-31T13:29:59.489Z,25.00
2018-05-31T13:33:01.275Z,25.00
2018-05-31T13:36:03.236Z,24.90
2018-05-31T13:39:05.960Z,24.90
2018-05-31T13:42:07.798Z,24.90
2018-05-31T13:45:09.617Z,24.80
2018-05-31T13:48:11.373Z,24.80
2018-05-31T13:51:13.496Z,24.80
2018-05-31T13:54:15.777Z,24.80
2018-05-31T13:57:17.652Z,24.60
2018-05-31T14:00:19.411Z,24.60
2018-05-31T14:03:21.930Z,24.60
2018-05-31T14:06:24.623Z,24.50
2018-05-31T14:09:26.560Z,24.50
2018-05-31T14:12:29.996Z,24.50
2018-05-31T14:15:33.471Z,24.40
2018-05-31T14:18:36.545Z,24.40
2018-05-31T14:21:38.375Z,24.30
2018-05-31T14:24:40.250Z,24.30
2018-05-31T14:27:42.731Z,24.30
2018-05-31T14:30:45.486Z,24.30
2018-05-31T14:33:47.670Z,24.40
2018-05-31T14:36:49.503Z,24.50
2018-05-31T14:39:51.438Z,24.60
2018-05-31T14:42:53.315Z,24.60
2018-05-31T14:45:55.137Z,24.60
2018-05-31T14:48:56.965Z,24.60
2018-05-31T14:51:58.746Z,24.70
2018-05-31T14:55:00.613Z,24.80
2018-05-31T14:58:02.393Z,25.00
2018-05-31T15:01:10.293Z,25.30
2018-05-31T15:04:14.076Z,25.30
2018-05-31T15:07:15.985Z,25.60
2018-05-31T15:10:18.716Z,25.90
2018-05-31T15:13:20.606Z,25.90
2018-05-31T15:16:22.424Z,26.10
2018-05-31T15:19:24.320Z,26.30
2018-05-31T15:22:26.731Z,26.50
2018-05-31T15:25:28.779Z,26.40
2018-05-31T15:28:31.520Z,26.20
2018-05-31T15:31:33.295Z,26.20
2018-05-31T15:34:35.899Z,26.30
2018-05-31T15:37:37.614Z,26.60
2018-05-31T15:40:39.358Z,26.70
2018-05-31T15:43:41.104Z,26.70
2018-05-31T15:46:44.728Z,26.70
2018-05-31T15:49:46.573Z,26.80
2018-05-31T15:52:48.303Z,26.70
2018-05-31T15:55:51.015Z,26.60
2018-05-31T15:58:53.158Z,26.70
2018-05-31T16:01:55.758Z,26.60
2018-05-31T16:04:58.579Z,26.60
2018-05-31T16:08:00.285Z,26.40
2018-05-31T16:11:01.992Z,26.30
2018-05-31T16:14:03.293Z,26.20
2018-05-31T16:17:04.581Z,26.40
2018-05-31T16:20:05.850Z,26.60
2018-05-31T16:23:07.106Z,26.80
2018-05-31T16:26:08.350Z,27.40
2018-05-31T16:29:09.573Z,27.40
2018-05-31T16:32:10.810Z,27.50
2018-05-31T16:35:12.095Z,27.70
2018-05-31T16:38:13.360Z,27.60
2018-05-31T16:41:14.698Z,27.90
2018-05-31T16:44:15.957Z,28.10
2018-05-31T16:47:17.192Z,28.10
2018-05-31T16:50:18.430Z,28.20
2018-05-31T16:53:20.401Z,28.20
2018-05-31T16:56:22.380Z,27.90
2018-05-31T16:59:24.388Z,27.70
2018-05-31T17:02:26.724Z,27.70
2018-05-31T17:05:27.969Z,27.70
2018-05-31T17:08:29.669Z,27.70
2018-05-31T17:11:30.911Z,27.70
2018-05-31T17:14:32.170Z,27.90
2018-05-31T17:17:33.521Z,27.90
2018-05-31T17:20:34.792Z,28.00
2018-05-31T17:23:36.046Z,27.90
2018-05-31T17:26:37.286Z,27.50
2018-05-31T17:29:46.966Z,27.20
2018-05-31T17:32:48.601Z,27.00
2018-05-31T17:35:50.629Z,26.50
2018-05-31T17:38:51.866Z,26.50
2018-05-31T17:41:53.109Z,26.40
2018-05-31T17:44:55.114Z,26.20
2018-05-31T17:47:56.353Z,26.10
2018-05-31T17:50:58.325Z,26.00
2018-05-31T17:54:00.334Z,25.90
2018-05-31T17:57:01.570Z,25.90
2018-05-31T18:00:03.592Z,25.90
2018-05-31T18:03:04.836Z,25.90
2018-05-31T18:06:06.070Z,25.90
2018-05-31T18:09:07.337Z,25.80
2018-05-31T18:12:09.326Z,25.60
2018-05-31T18:15:11.304Z,25.60
2018-05-31T18:18:13.313Z,25.60
2018-05-31T18:21:14.559Z,25.60
2018-05-31T18:24:16.546Z,25.40
2018-05-31T18:27:17.850Z,25.40
2018-05-31T18:30:19.154Z,25.40
2018-05-31T18:33:21.179Z,25.30
2018-05-31T18:36:22.446Z,25.30
2018-05-31T18:39:23.689Z,25.30
2018-05-31T18:42:24.981Z,25.20
2018-05-31T18:45:27.066Z,25.20
2018-05-31T18:48:28.289Z,25.20
2018-05-31T18:51:31.588Z,25.20
2018-05-31T18:54:33.702Z,25.20
2018-05-31T18:57:35.759Z,25.20
2018-05-31T19:00:37.033Z,25.20
2018-05-31T19:03:38.530Z,25.10
2018-05-31T19:06:39.777Z,25.00
2018-05-31T19:09:41.026Z,25.00
2018-05-31T19:12:48.472Z,25.00
2018-05-31T19:15:49.874Z,25.10
2018-05-31T19:18:57.396Z,24.90
2018-05-31T19:21:59.446Z,24.80
2018-05-31T19:25:06.821Z,24.80
2018-05-31T19:28:08.068Z,24.80
2018-05-31T19:31:11.346Z,24.80
2018-05-31T19:34:12.582Z,24.80
2018-05-31T19:37:13.844Z,24.90
2018-05-31T19:40:15.101Z,24.90
2018-05-31T19:43:22.503Z,24.90
2018-05-31T19:46:23.721Z,24.80
2018-05-31T19:49:25.709Z,24.40
2018-05-31T19:52:33.745Z,24.40
2018-05-31T19:55:34.997Z,24.40
2018-05-31T19:58:42.290Z,24.30
2018-05-31T20:01:50.521Z,24.30
2018-05-31T20:04:52.545Z,24.30
2018-05-31T20:07:53.797Z,24.30
2018-05-31T20:10:55.073Z,24.30
2018-05-31T20:13:56.355Z,24.30
2018-05-31T20:16:57.664Z,24.30
2018-05-31T20:19:59.671Z,24.00
2018-05-31T20:23:00.942Z,24.00
2018-05-31T20:26:02.257Z,23.90
2018-05-31T20:29:04.318Z,24.00
2018-05-31T20:32:05.606Z,24.00
2018-05-31T20:35:06.940Z,24.00
2018-05-31T20:38:08.226Z,24.00
2018-05-31T20:41:09.470Z,23.90
2018-05-31T20:44:10.694Z,23.90
2018-05-31T20:47:13.096Z,23.80
2018-05-31T20:50:14.384Z,23.60
2018-05-31T20:53:17.090Z,23.60
2018-05-31T20:56:19.285Z,23.60
2018-05-31T20:59:20.578Z,23.60
2018-05-31T21:02:21.893Z,23.60
2018-05-31T21:05:23.191Z,23.60
2018-05-31T21:08:25.601Z,23.40
2018-05-31T21:11:27.195Z,23.40
2018-05-31T21:14:28.515Z,23.30
2018-05-31T21:17:37.570Z,23.30
2018-05-31T21:20:39.598Z,23.20
2018-05-31T21:23:40.903Z,23.00
2018-05-31T21:26:42.952Z,23.30
2018-05-31T21:29:44.246Z,23.30
2018-05-31T21:32:45.531Z,23.40
2018-05-31T21:35:46.833Z,23.10
2018-05-31T21:38:48.110Z,22.90
2018-05-31T21:41:50.689Z,22.80
2018-05-31T21:44:57.702Z,23.00
2018-05-31T21:48:10.147Z,23.00
2018-05-31T21:51:11.413Z,23.00
2018-05-31T21:54:20.099Z,23.10
2018-05-31T21:57:24.592Z,23.10
2018-05-31T22:00:37.993Z,23.10
2018-05-31T22:03:39.251Z,23.20
2018-05-31T22:06:40.592Z,23.10
2018-05-31T22:09:41.861Z,23.10
2018-05-31T22:12:43.150Z,23.00
2018-05-31T22:15:44.438Z,22.80
2018-05-31T22:18:45.701Z,22.80
2018-05-31T22:21:46.970Z,22.80
2018-05-31T22:24:48.283Z,22.70
2018-05-31T22:27:49.603Z,22.90
2018-05-31T22:30:50.931Z,22.90
2018-05-31T22:33:52.291Z,22.90
2018-05-31T22:36:53.645Z,22.90
2018-05-31T22:39:54.903Z,22.80
2018-05-31T22:42:56.356Z,22.80
2018-05-31T22:45:58.341Z,22.80
2018-05-31T22:48:59.968Z,22.70
2018-05-31T22:52:01.267Z,22.70
2018-05-31T22:55:03.275Z,22.70
2018-05-31T22:58:04.548Z,22.70
2018-05-31T23:01:05.817Z,22.70
2018-05-31T23:04:07.062Z,22.60
2018-05-31T23:07:08.318Z,22.70
2018-05-31T23:10:09.598Z,22.70
2018-05-31T23:13:10.847Z,22.70
2018-05-31T23:16:12.063Z,22.60
2018-05-31T23:19:13.321Z,22.60
2018-05-31T23:22:14.577Z,22.40
2018-05-31T23:25:15.861Z,22.40
2018-05-31T23:28:17.106Z,22.40
2018-05-31T23:31:18.375Z,22.40
2018-05-31T23:34:19.627Z,22.50
2018-05-31T23:37:20.946Z,22.50
2018-05-31T23:40:22.907Z,22.10
2018-05-31T23:43:24.183Z,22.10
2018-05-31T23:46:26.194Z,22.30
2018-05-31T23:49:27.692Z,22.20
2018-05-31T23:52:29.028Z,22.20
2018-05-31T23:55:30.362Z,22.30
2018-05-31T23:58:32.365Z,22.30
